createdAt,value
2019-01-05T00:05:38.273Z,4.60
2019-01-05T00:11:04.925Z,5.60
2019-01-05T00:16:38.170Z,7.23
2019-01-05T00:22:10.662Z,7.00
2019-01-05T00:27:54.882Z,6.50
2019-01-05T00:33:39.782Z,7.67
2019-01-05T00:39:19.058Z,9.90
2019-01-05T00:44:49.479Z,7.43
2019-01-05T00:50:13.807Z,6.50
2019-01-05T00:55:57.721Z,4.67
2019-01-05T01:01:25.249Z,3.63
2019-01-05T01:06:56.398Z,4.17
2019-01-05T01:12:21.286Z,3.50
2019-01-05T01:17:52.316Z,3.80
2019-01-05T01:23:17.294Z,3.00
2019-01-05T01:28:43.010Z,2.97
2019-01-05T01:34:09.709Z,2.67
2019-01-05T01:39:43.661Z,2.20
2019-01-05T01:45:07.079Z,2.70
2019-01-05T01:50:30.988Z,2.97
2019-01-05T01:56:01.069Z,2.50
2019-01-05T02:01:27.157Z,1.63
2019-01-05T02:06:57.657Z,3.90
2019-01-05T02:12:36.817Z,4.53
2019-01-05T02:24:31.489Z,1.13
2019-01-05T02:30:50.549Z,1.87
2019-01-05T02:36:42.634Z,1.73
2019-01-05T02:43:02.841Z,1.73
2019-01-05T02:49:24.729Z,1.80
2019-01-05T02:55:33.139Z,2.10
2019-01-05T03:01:49.817Z,2.30
2019-01-05T03:07:54.232Z,8.27
2019-01-05T03:13:41.161Z,2.10
2019-01-05T03:20:06.157Z,1.90
2019-01-05T03:26:08.448Z,1.20
2019-01-05T03:32:05.069Z,1.60
2019-01-05T03:38:03.872Z,2.00
2019-01-05T03:44:17.239Z,1.37
2019-01-05T03:50:10.285Z,2.63
2019-01-05T03:55:57.407Z,1.10
2019-01-05T04:01:46.548Z,1.60
2019-01-05T04:08:06.998Z,1.37
2019-01-05T04:13:59.394Z,1.33
2019-01-05T04:20:04.174Z,1.00
2019-01-05T04:26:23.455Z,0.87
2019-01-05T04:32:30.449Z,0.93
2019-01-05T04:38:57.688Z,0.97
2019-01-05T04:45:06.505Z,0.80
2019-01-05T04:51:27.945Z,1.00
2019-01-05T04:57:41.304Z,1.50
2019-01-05T05:03:52.196Z,1.67
2019-01-05T05:15:54.453Z,0.80
2019-01-05T05:22:19.790Z,1.73
2019-01-05T05:28:26.791Z,0.90
2019-01-05T05:34:29.356Z,0.80
2019-01-05T05:40:36.289Z,0.63
2019-01-05T05:46:46.385Z,0.77
2019-01-05T05:52:59.888Z,0.80
2019-01-05T05:59:20.703Z,0.70
2019-01-05T06:05:57.004Z,0.60
2019-01-05T06:12:29.592Z,0.63
2019-01-05T06:18:29.005Z,0.70
2019-01-05T06:24:37.634Z,0.70
2019-01-05T06:30:38.641Z,0.70
2019-01-05T06:42:43.838Z,0.70
2019-01-05T06:48:47.749Z,0.60
2019-01-05T06:55:17.612Z,2.13
2019-01-05T07:01:56.054Z,0.70
2019-01-05T07:07:54.879Z,1.33
2019-01-05T07:14:17.305Z,1.00
2019-01-05T07:20:22.930Z,1.20
2019-01-05T07:26:25.906Z,0.90
2019-01-05T07:32:23.635Z,1.00
2019-01-05T07:38:34.949Z,0.90
2019-01-05T07:44:56.718Z,0.80
2019-01-05T07:51:09.855Z,1.40
2019-01-05T07:57:22.013Z,1.93
2019-01-05T08:03:45.033Z,1.90
2019-01-05T08:09:48.463Z,2.50
2019-01-05T08:16:01.319Z,2.17
2019-01-05T08:21:58.013Z,2.10
2019-01-05T08:27:49.327Z,2.20
2019-01-05T08:34:14.895Z,2.17
2019-01-05T08:40:13.827Z,3.70
2019-01-05T08:46:16.367Z,28.97
2019-01-05T08:52:34.093Z,3.20
2019-01-05T08:58:59.453Z,6.30
2019-01-05T09:04:53.177Z,3.67
2019-01-05T09:10:49.966Z,8.33
2019-01-05T09:17:21.177Z,3.70
2019-01-05T09:23:44.365Z,4.73
2019-01-05T09:29:53.637Z,3.00
2019-01-05T09:36:02.880Z,3.63
2019-01-05T09:42:08.501Z,3.50
2019-01-05T09:48:30.282Z,5.10
2019-01-05T09:54:42.947Z,3.00
2019-01-05T10:00:48.883Z,1.60
2019-01-05T10:06:58.144Z,3.47
2019-01-05T10:13:01.623Z,2.80
2019-01-05T10:19:01.309Z,1.60
2019-01-05T10:25:23.573Z,1.97
2019-01-05T10:31:32.742Z,1.70
2019-01-05T10:37:55.870Z,1.60
2019-01-05T10:44:09.572Z,1.70
2019-01-05T10:50:32.654Z,1.90
2019-01-05T10:56:25.820Z,2.33
2019-01-05T11:18:51.369Z,3.83
2019-01-05T11:25:16.597Z,2.53
2019-01-05T11:31:22.066Z,5.20
2019-01-05T11:37:22.013Z,2.90
2019-01-05T11:43:42.003Z,4.37
2019-01-05T11:49:45.812Z,5.83
2019-01-05T11:55:44.166Z,6.03
2019-01-05T12:01:49.133Z,5.23
2019-01-05T12:07:48.132Z,7.47
2019-01-05T12:13:58.934Z,9.00
2019-01-05T12:20:12.190Z,5.90
2019-01-05T12:26:09.660Z,4.67
2019-01-05T12:32:35.640Z,5.47
2019-01-05T12:38:35.354Z,6.03
2019-01-05T12:50:58.024Z,6.87
2019-01-05T12:57:19.719Z,7.47
2019-01-05T13:03:37.433Z,10.93
2019-01-05T13:10:24.956Z,8.80
2019-01-05T13:16:32.691Z,8.83
2019-01-05T13:22:25.382Z,7.83
2019-01-05T13:28:24.257Z,7.07
2019-01-05T13:34:44.246Z,7.40
2019-01-05T13:40:35.812Z,4.00
2019-01-05T13:47:01.032Z,7.40
2019-01-05T13:52:55.639Z,7.53
2019-01-05T13:58:26.799Z,5.73
2019-01-05T14:04:04.261Z,6.33
2019-01-05T14:09:28.728Z,4.33
2019-01-05T14:14:55.008Z,4.87
2019-01-05T14:20:28.498Z,6.30
2019-01-05T14:25:52.668Z,5.80
2019-01-05T14:31:16.707Z,6.27
2019-01-05T14:36:50.345Z,7.67
2019-01-05T14:42:08.346Z,5.10
2019-01-05T14:47:36.139Z,6.50
2019-01-05T14:52:59.437Z,7.40
2019-01-05T14:58:22.795Z,5.73
2019-01-05T15:04:00.020Z,3.00
2019-01-05T15:09:42.014Z,8.53
2019-01-05T15:15:06.014Z,4.73
2019-01-05T15:20:29.524Z,5.10
2019-01-05T15:25:54.788Z,11.80
2019-01-05T15:31:18.222Z,6.07
2019-01-05T15:36:42.752Z,6.80
2019-01-05T15:42:06.663Z,7.90
2019-01-05T15:47:34.773Z,6.47
2019-01-05T15:52:58.524Z,11.47
2019-01-05T15:58:29.183Z,11.33
2019-01-05T16:03:53.106Z,5.93
2019-01-05T16:09:27.894Z,5.43
2019-01-05T16:14:55.411Z,8.10
2019-01-05T16:20:19.713Z,9.10
2019-01-05T16:25:37.838Z,8.77
2019-01-05T16:31:11.586Z,6.53
2019-01-05T16:36:35.043Z,4.80
2019-01-05T16:41:59.995Z,9.80
2019-01-05T16:47:41.072Z,10.93
2019-01-05T16:53:04.449Z,6.70
2019-01-05T16:58:23.604Z,12.77
2019-01-05T17:03:46.872Z,7.37
2019-01-05T17:09:11.302Z,19.30
2019-01-05T17:14:37.498Z,11.07
2019-01-05T17:20:13.364Z,10.33
2019-01-05T17:25:55.388Z,10.77
2019-01-05T17:31:36.122Z,14.40
2019-01-05T17:36:59.789Z,10.10
2019-01-05T17:42:25.700Z,14.33
2019-01-05T17:47:49.520Z,16.50
2019-01-05T17:53:29.304Z,12.00
2019-01-05T17:59:02.234Z,21.20
2019-01-05T18:04:29.262Z,10.53
2019-01-05T18:10:09.166Z,9.50
2019-01-05T18:15:54.429Z,9.27
2019-01-05T18:21:19.185Z,8.50
2019-01-05T18:26:52.958Z,9.40
2019-01-05T18:32:29.634Z,5.03
2019-01-05T18:37:55.026Z,8.20
2019-01-05T18:43:18.514Z,9.10
2019-01-05T18:48:56.992Z,11.10
2019-01-05T18:54:23.531Z,13.60
2019-01-05T18:59:48.287Z,6.97
2019-01-05T19:05:31.380Z,6.50
2019-01-05T19:11:11.704Z,8.23
2019-01-05T19:22:07.587Z,7.97
2019-01-05T19:27:39.194Z,10.23
2019-01-05T19:33:03.205Z,9.80
2019-01-05T19:43:56.136Z,12.07
2019-01-05T19:49:21.139Z,8.80
2019-01-05T19:54:45.983Z,8.27
2019-01-05T20:00:12.045Z,8.97
2019-01-05T20:05:46.949Z,7.37
2019-01-05T20:11:12.595Z,4.17
2019-01-05T20:16:40.424Z,3.27
2019-01-05T20:22:06.313Z,4.33
2019-01-05T20:27:34.183Z,4.60
2019-01-05T20:33:07.115Z,6.97
2019-01-05T20:38:43.321Z,7.17
2019-01-05T20:44:09.323Z,12.10
2019-01-05T20:49:44.529Z,16.53
2019-01-05T20:55:08.659Z,13.43
2019-01-05T21:00:32.358Z,10.63
2019-01-05T21:06:06.060Z,12.07
2019-01-05T21:11:34.982Z,7.97
2019-01-05T21:16:58.698Z,2.80
2019-01-05T21:22:42.660Z,4.10
2019-01-05T21:28:13.081Z,2.17
2019-01-05T21:33:39.891Z,2.30
2019-01-05T21:39:20.621Z,4.10
2019-01-05T21:44:44.022Z,3.70
2019-01-05T21:50:15.371Z,2.40
2019-01-05T21:55:38.469Z,1.70
2019-01-05T22:01:09.506Z,1.53
2019-01-05T22:06:33.052Z,1.00
2019-01-05T22:12:08.235Z,4.50
2019-01-05T22:17:33.027Z,1.60
2019-01-05T22:22:59.002Z,2.47
2019-01-05T22:28:20.558Z,2.90
2019-01-05T22:33:51.149Z,2.57
2019-01-05T22:39:15.229Z,2.07
2019-01-05T22:44:41.275Z,2.73
2019-01-05T22:50:23.474Z,2.03
2019-01-05T22:56:04.486Z,1.80
2019-01-05T23:01:29.774Z,2.57
2019-01-05T23:06:52.410Z,2.57
2019-01-05T23:12:16.171Z,4.53
2019-01-05T23:17:55.985Z,3.17
2019-01-05T23:23:26.933Z,2.30
2019-01-05T23:28:55.330Z,4.07
2019-01-05T23:34:16.137Z,2.40
2019-01-05T23:39:40.107Z,2.30
2019-01-05T23:56:20.332Z,3.73
